sensor_id;sensor_type;location;lat;lon;timestamp;P1;durP1;ratioP1;P2;durP2;ratioP2
10491;SDS011;5293;51.464;-2.566;2023-02-18T00:00:17;10.60;;;2.13;;
10491;SDS011;5293;51.464;-2.566;2023-02-18T00:02:44;8.23;;;1.50;;
10491;SDS011;5293;51.464;-2.566;2023-02-18T00:05:11;9.00;;;1.77;;
10491;SDS011;5293;51.464;-2.566;2023-02-18T00:07:38;8.57;;;1.53;;
10491;SDS011;5293;51.464;-2.566;2023-02-18T00:10:05;8.17;;;1.90;;
10491;SDS011;5293;51.464;-2.566;2023-02-18T00:12:33;7.57;;;1.77;;
10491;SDS011;5293;51.464;-2.566;2023-02-18T00:14:59;7.90;;;2.00;;
10491;SDS011;5293;51.464;-2.566;2023-02-18T00:17:25;8.57;;;1.70;;
10491;SDS011;5293;51.464;-2.566;2023-02-18T00:19:52;8.67;;;2.23;;
10491;SDS011;5293;51.464;-2.566;2023-02-18T00:22:17;5.37;;;1.40;;
10491;SDS011;5293;51.464;-2.566;2023-02-18T00:24:43;5.90;;;2.27;;
10491;SDS011;5293;51.464;-2.566;2023-02-18T00:27:09;6.87;;;1.60;;
10491;SDS011;5293;51.464;-2.566;2023-02-18T00:29:34;8.57;;;1.80;;
10491;SDS011;5293;51.464;-2.566;2023-02-18T00:32:00;17.43;;;1.83;;
10491;SDS011;5293;51.464;-2.566;2023-02-18T00:34:26;6.10;;;1.20;;
10491;SDS011;5293;51.464;-2.566;2023-02-18T00:36:51;10.07;;;1.83;;
10491;SDS011;5293;51.464;-2.566;2023-02-18T00:39:17;6.80;;;1.20;;
10491;SDS011;5293;51.464;-2.566;2023-02-18T00:41:43;9.93;;;1.93;;
10491;SDS011;5293;51.464;-2.566;2023-02-18T00:44:09;9.80;;;1.73;;
10491;SDS011;5293;51.464;-2.566;2023-02-18T00:46:36;8.50;;;2.07;;
10491;SDS011;5293;51.464;-2.566;2023-02-18T00:49:02;7.27;;;1.40;;
10491;SDS011;5293;51.464;-2.566;2023-02-18T00:51:28;6.07;;;1.30;;
10491;SDS011;5293;51.464;-2.566;2023-02-18T00:53:54;7.90;;;1.50;;
10491;SDS011;5293;51.464;-2.566;2023-02-18T00:56:20;4.27;;;1.53;;
10491;SDS011;5293;51.464;-2.566;2023-02-18T00:58:46;6.23;;;1.53;;
10491;SDS011;5293;51.464;-2.566;2023-02-18T01:01:12;6.90;;;1.87;;
10491;SDS011;5293;51.464;-2.566;2023-02-18T01:03:38;5.60;;;2.00;;
10491;SDS011;5293;51.464;-2.566;2023-02-18T01:06:05;8.07;;;2.00;;
10491;SDS011;5293;51.464;-2.566;2023-02-18T01:08:32;6.67;;;1.67;;
10491;SDS011;5293;51.464;-2.566;2023-02-18T01:10:59;7.70;;;1.83;;
10491;SDS011;5293;51.464;-2.566;2023-02-18T01:13:27;6.70;;;1.60;;
10491;SDS011;5293;51.464;-2.566;2023-02-18T01:15:53;5.00;;;1.30;;
10491;SDS011;5293;51.464;-2.566;2023-02-18T01:18:19;5.57;;;1.70;;
10491;SDS011;5293;51.464;-2.566;2023-02-18T01:20:46;6.13;;;1.40;;
10491;SDS011;5293;51.464;-2.566;2023-02-18T01:23:12;6.77;;;1.40;;
10491;SDS011;5293;51.464;-2.566;2023-02-18T01:25:38;4.77;;;1.33;;
10491;SDS011;5293;51.464;-2.566;2023-02-18T01:28:05;5.90;;;1.43;;
10491;SDS011;5293;51.464;-2.566;2023-02-18T01:30:32;2.93;;;1.37;;
10491;SDS011;5293;51.464;-2.566;2023-02-18T01:32:58;6.97;;;1.50;;
10491;SDS011;5293;51.464;-2.566;2023-02-18T01:35:24;5.20;;;1.13;;
10491;SDS011;5293;51.464;-2.566;2023-02-18T01:37:50;6.50;;;1.80;;
10491;SDS011;5293;51.464;-2.566;2023-02-18T01:40:18;4.73;;;1.50;;
10491;SDS011;5293;51.464;-2.566;2023-02-18T01:42:46;7.83;;;1.70;;
10491;SDS011;5293;51.464;-2.566;2023-02-18T01:50:25;7.33;;;1.73;;
10491;SDS011;5293;51.464;-2.566;2023-02-18T01:52:52;5.20;;;1.40;;
10491;SDS011;5293;51.464;-2.566;2023-02-18T01:55:17;6.17;;;1.50;;
10491;SDS011;5293;51.464;-2.566;2023-02-18T01:57:43;5.90;;;1.40;;
10491;SDS011;5293;51.464;-2.566;2023-02-18T02:00:13;4.20;;;1.20;;
10491;SDS011;5293;51.464;-2.566;2023-02-18T02:02:43;7.73;;;1.50;;
10491;SDS011;5293;51.464;-2.566;2023-02-18T02:05:10;4.53;;;1.40;;
10491;SDS011;5293;51.464;-2.566;2023-02-18T02:07:37;6.03;;;1.70;;
10491;SDS011;5293;51.464;-2.566;2023-02-18T02:10:04;3.97;;;1.30;;
10491;SDS011;5293;51.464;-2.566;2023-02-18T02:27:09;6.07;;;0.87;;
10491;SDS011;5293;51.464;-2.566;2023-02-18T02:35:25;4.10;;;1.07;;
10491;SDS011;5293;51.464;-2.566;2023-02-18T02:38:31;8.97;;;1.90;;
10491;SDS011;5293;51.464;-2.566;2023-02-18T02:46:38;5.07;;;0.90;;
10491;SDS011;5293;51.464;-2.566;2023-02-18T02:49:20;5.70;;;1.40;;
10491;SDS011;5293;51.464;-2.566;2023-02-18T02:54:58;5.53;;;1.10;;
10491;SDS011;5293;51.464;-2.566;2023-02-18T02:59:51;6.13;;;1.30;;
10491;SDS011;5293;51.464;-2.566;2023-02-18T03:18:39;8.83;;;1.37;;
10491;SDS011;5293;51.464;-2.566;2023-02-18T03:21:59;4.03;;;1.20;;
10491;SDS011;5293;51.464;-2.566;2023-02-18T03:24:43;5.03;;;1.43;;
10491;SDS011;5293;51.464;-2.566;2023-02-18T03:27:15;8.10;;;1.73;;
10491;SDS011;5293;51.464;-2.566;2023-02-18T03:29:45;6.33;;;1.53;;
10491;SDS011;5293;51.464;-2.566;2023-02-18T03:32:17;5.47;;;1.43;;
10491;SDS011;5293;51.464;-2.566;2023-02-18T03:34:48;5.20;;;1.23;;
10491;SDS011;5293;51.464;-2.566;2023-02-18T03:37:20;9.77;;;1.20;;
10491;SDS011;5293;51.464;-2.566;2023-02-18T03:39:47;6.73;;;1.60;;
10491;SDS011;5293;51.464;-2.566;2023-02-18T03:42:16;6.47;;;1.70;;
10491;SDS011;5293;51.464;-2.566;2023-02-18T03:44:43;6.40;;;1.13;;
10491;SDS011;5293;51.464;-2.566;2023-02-18T03:47:09;5.40;;;1.20;;
10491;SDS011;5293;51.464;-2.566;2023-02-18T03:49:35;5.70;;;1.13;;
10491;SDS011;5293;51.464;-2.566;2023-02-18T03:52:01;3.67;;;1.20;;
10491;SDS011;5293;51.464;-2.566;2023-02-18T03:54:27;5.37;;;1.20;;
10491;SDS011;5293;51.464;-2.566;2023-02-18T03:56:53;9.00;;;1.57;;
10491;SDS011;5293;51.464;-2.566;2023-02-18T03:59:18;10.37;;;1.57;;
10491;SDS011;5293;51.464;-2.566;2023-02-18T04:01:44;7.83;;;1.40;;
10491;SDS011;5293;51.464;-2.566;2023-02-18T04:04:10;8.53;;;1.53;;
10491;SDS011;5293;51.464;-2.566;2023-02-18T04:06:35;5.87;;;1.67;;
10491;SDS011;5293;51.464;-2.566;2023-02-18T04:09:01;6.77;;;1.70;;
10491;SDS011;5293;51.464;-2.566;2023-02-18T04:11:32;6.17;;;1.40;;
10491;SDS011;5293;51.464;-2.566;2023-02-18T04:14:02;8.43;;;1.40;;
10491;SDS011;5293;51.464;-2.566;2023-02-18T04:16:28;7.10;;;1.50;;
10491;SDS011;5293;51.464;-2.566;2023-02-18T04:18:54;7.77;;;1.30;;
10491;SDS011;5293;51.464;-2.566;2023-02-18T04:21:20;6.30;;;1.57;;
10491;SDS011;5293;51.464;-2.566;2023-02-18T04:23:45;7.57;;;2.20;;
10491;SDS011;5293;51.464;-2.566;2023-02-18T04:26:11;5.77;;;1.80;;
10491;SDS011;5293;51.464;-2.566;2023-02-18T04:28:37;5.80;;;1.13;;
10491;SDS011;5293;51.464;-2.566;2023-02-18T04:31:02;13.70;;;1.60;;
10491;SDS011;5293;51.464;-2.566;2023-02-18T04:33:28;7.50;;;1.70;;
10491;SDS011;5293;51.464;-2.566;2023-02-18T04:35:54;6.10;;;1.67;;
10491;SDS011;5293;51.464;-2.566;2023-02-18T04:38:19;3.80;;;1.23;;
10491;SDS011;5293;51.464;-2.566;2023-02-18T04:40:45;4.77;;;1.70;;
10491;SDS011;5293;51.464;-2.566;2023-02-18T04:43:11;4.70;;;1.37;;
10491;SDS011;5293;51.464;-2.566;2023-02-18T04:45:37;4.50;;;1.47;;
10491;SDS011;5293;51.464;-2.566;2023-02-18T04:48:02;9.80;;;1.73;;
10491;SDS011;5293;51.464;-2.566;2023-02-18T04:50:28;8.87;;;2.10;;
10491;SDS011;5293;51.464;-2.566;2023-02-18T04:52:54;7.73;;;1.50;;
10491;SDS011;5293;51.464;-2.566;2023-02-18T04:55:19;10.83;;;1.67;;
10491;SDS011;5293;51.464;-2.566;2023-02-18T04:57:45;7.73;;;1.23;;
10491;SDS011;5293;51.464;-2.566;2023-02-18T05:00:13;5.63;;;1.70;;
10491;SDS011;5293;51.464;-2.566;2023-02-18T05:02:41;8.17;;;1.57;;
10491;SDS011;5293;51.464;-2.566;2023-02-18T05:05:07;7.43;;;1.50;;
10491;SDS011;5293;51.464;-2.566;2023-02-18T05:07:33;5.13;;;1.33;;
10491;SDS011;5293;51.464;-2.566;2023-02-18T05:09:59;5.17;;;1.67;;
10491;SDS011;5293;51.464;-2.566;2023-02-18T05:12:24;7.27;;;1.90;;
10491;SDS011;5293;51.464;-2.566;2023-02-18T05:14:50;7.37;;;1.90;;
10491;SDS011;5293;51.464;-2.566;2023-02-18T05:17:16;6.27;;;1.47;;
10491;SDS011;5293;51.464;-2.566;2023-02-18T05:19:41;9.03;;;1.93;;
10491;SDS011;5293;51.464;-2.566;2023-02-18T05:22:07;10.53;;;1.67;;
10491;SDS011;5293;51.464;-2.566;2023-02-18T05:24:33;7.97;;;1.60;;
10491;SDS011;5293;51.464;-2.566;2023-02-18T05:26:58;7.23;;;1.53;;
10491;SDS011;5293;51.464;-2.566;2023-02-18T05:29:24;6.47;;;1.90;;
10491;SDS011;5293;51.464;-2.566;2023-02-18T05:31:50;7.03;;;1.73;;
10491;SDS011;5293;51.464;-2.566;2023-02-18T05:34:16;10.53;;;1.97;;
10491;SDS011;5293;51.464;-2.566;2023-02-18T05:36:42;9.53;;;1.67;;
10491;SDS011;5293;51.464;-2.566;2023-02-18T05:39:07;7.37;;;1.87;;
10491;SDS011;5293;51.464;-2.566;2023-02-18T05:41:33;10.90;;;2.33;;
10491;SDS011;5293;51.464;-2.566;2023-02-18T05:43:59;12.20;;;2.10;;
10491;SDS011;5293;51.464;-2.566;2023-02-18T05:46:43;5.13;;;1.70;;
10491;SDS011;5293;51.464;-2.566;2023-02-18T05:49:09;6.00;;;1.60;;
10491;SDS011;5293;51.464;-2.566;2023-02-18T05:51:35;11.20;;;2.30;;
10491;SDS011;5293;51.464;-2.566;2023-02-18T05:54:01;13.07;;;3.07;;
10491;SDS011;5293;51.464;-2.566;2023-02-18T05:56:26;8.87;;;1.87;;
10491;SDS011;5293;51.464;-2.566;2023-02-18T05:58:52;9.40;;;1.70;;
10491;SDS011;5293;51.464;-2.566;2023-02-18T06:01:18;9.60;;;2.20;;
10491;SDS011;5293;51.464;-2.566;2023-02-18T06:03:43;6.70;;;1.80;;
10491;SDS011;5293;51.464;-2.566;2023-02-18T06:06:09;7.33;;;1.70;;
10491;SDS011;5293;51.464;-2.566;2023-02-18T06:08:34;9.93;;;1.77;;
10491;SDS011;5293;51.464;-2.566;2023-02-18T06:11:00;9.30;;;2.37;;
10491;SDS011;5293;51.464;-2.566;2023-02-18T06:13:26;6.97;;;1.83;;
10491;SDS011;5293;51.464;-2.566;2023-02-18T06:15:52;10.60;;;2.27;;
10491;SDS011;5293;51.464;-2.566;2023-02-18T06:18:19;8.83;;;2.13;;
10491;SDS011;5293;51.464;-2.566;2023-02-18T06:20:46;4.40;;;1.30;;
10491;SDS011;5293;51.464;-2.566;2023-02-18T06:23:12;9.77;;;1.97;;
10491;SDS011;5293;51.464;-2.566;2023-02-18T06:25:38;5.43;;;2.37;;
10491;SDS011;5293;51.464;-2.566;2023-02-18T06:28:04;10.50;;;1.83;;
10491;SDS011;5293;51.464;-2.566;2023-02-18T06:30:30;10.00;;;1.77;;
10491;SDS011;5293;51.464;-2.566;2023-02-18T06:32:56;8.73;;;1.70;;
10491;SDS011;5293;51.464;-2.566;2023-02-18T06:35:21;9.57;;;2.90;;
10491;SDS011;5293;51.464;-2.566;2023-02-18T06:37:47;12.27;;;2.33;;
10491;SDS011;5293;51.464;-2.566;2023-02-18T06:40:13;8.10;;;2.10;;
10491;SDS011;5293;51.464;-2.566;2023-02-18T06:42:38;7.70;;;1.90;;
10491;SDS011;5293;51.464;-2.566;2023-02-18T06:45:04;8.53;;;1.90;;
10491;SDS011;5293;51.464;-2.566;2023-02-18T06:47:31;3.20;;;1.50;;
10491;SDS011;5293;51.464;-2.566;2023-02-18T06:49:57;11.33;;;2.27;;
10491;SDS011;5293;51.464;-2.566;2023-02-18T06:52:23;9.10;;;1.80;;
10491;SDS011;5293;51.464;-2.566;2023-02-18T06:54:48;7.67;;;2.53;;
10491;SDS011;5293;51.464;-2.566;2023-02-18T06:57:14;11.07;;;1.70;;
10491;SDS011;5293;51.464;-2.566;2023-02-18T06:59:40;7.53;;;1.90;;
10491;SDS011;5293;51.464;-2.566;2023-02-18T07:02:06;8.50;;;1.60;;
10491;SDS011;5293;51.464;-2.566;2023-02-18T07:04:34;6.20;;;1.83;;
10491;SDS011;5293;51.464;-2.566;2023-02-18T07:06:59;8.43;;;1.53;;
10491;SDS011;5293;51.464;-2.566;2023-02-18T07:09:25;4.67;;;1.40;;
10491;SDS011;5293;51.464;-2.566;2023-02-18T07:11:51;8.30;;;1.73;;
10491;SDS011;5293;51.464;-2.566;2023-02-18T07:14:16;4.87;;;1.67;;
10491;SDS011;5293;51.464;-2.566;2023-02-18T07:16:42;9.57;;;2.10;;
10491;SDS011;5293;51.464;-2.566;2023-02-18T07:19:07;10.90;;;2.03;;
10491;SDS011;5293;51.464;-2.566;2023-02-18T07:21:33;7.43;;;2.27;;
10491;SDS011;5293;51.464;-2.566;2023-02-18T07:23:59;9.33;;;2.03;;
10491;SDS011;5293;51.464;-2.566;2023-02-18T07:26:24;5.10;;;1.43;;
10491;SDS011;5293;51.464;-2.566;2023-02-18T07:28:50;12.37;;;2.10;;
10491;SDS011;5293;51.464;-2.566;2023-02-18T07:31:16;8.47;;;1.70;;
10491;SDS011;5293;51.464;-2.566;2023-02-18T07:33:42;5.27;;;1.90;;
10491;SDS011;5293;51.464;-2.566;2023-02-18T07:36:08;10.27;;;2.20;;
10491;SDS011;5293;51.464;-2.566;2023-02-18T07:38:33;5.50;;;1.60;;
10491;SDS011;5293;51.464;-2.566;2023-02-18T07:40:59;7.17;;;1.90;;
10491;SDS011;5293;51.464;-2.566;2023-02-18T07:43:25;6.43;;;1.67;;
10491;SDS011;5293;51.464;-2.566;2023-02-18T07:45:50;4.53;;;1.53;;
10491;SDS011;5293;51.464;-2.566;2023-02-18T07:48:16;7.63;;;1.37;;
10491;SDS011;5293;51.464;-2.566;2023-02-18T07:50:42;7.30;;;1.83;;
10491;SDS011;5293;51.464;-2.566;2023-02-18T07:53:10;2.80;;;1.63;;
10491;SDS011;5293;51.464;-2.566;2023-02-18T07:55:37;9.70;;;2.03;;
10491;SDS011;5293;51.464;-2.566;2023-02-18T07:58:24;6.40;;;1.70;;
10491;SDS011;5293;51.464;-2.566;2023-02-18T08:00:52;5.83;;;1.43;;
10491;SDS011;5293;51.464;-2.566;2023-02-18T08:03:22;6.70;;;1.77;;
10491;SDS011;5293;51.464;-2.566;2023-02-18T08:05:53;7.40;;;1.50;;
10491;SDS011;5293;51.464;-2.566;2023-02-18T08:08:21;10.77;;;2.00;;
10491;SDS011;5293;51.464;-2.566;2023-02-18T08:10:49;8.60;;;2.30;;
10491;SDS011;5293;51.464;-2.566;2023-02-18T08:13:16;6.03;;;1.90;;
10491;SDS011;5293;51.464;-2.566;2023-02-18T08:15:42;9.53;;;2.07;;
10491;SDS011;5293;51.464;-2.566;2023-02-18T08:18:13;6.83;;;2.50;;
10491;SDS011;5293;51.464;-2.566;2023-02-18T08:20:44;9.13;;;2.20;;
10491;SDS011;5293;51.464;-2.566;2023-02-18T08:23:17;9.07;;;2.70;;
10491;SDS011;5293;51.464;-2.566;2023-02-18T08:25:50;10.30;;;2.10;;
10491;SDS011;5293;51.464;-2.566;2023-02-18T08:28:17;11.97;;;1.97;;
10491;SDS011;5293;51.464;-2.566;2023-02-18T08:30:47;12.87;;;2.50;;
10491;SDS011;5293;51.464;-2.566;2023-02-18T08:33:14;7.60;;;2.63;;
10491;SDS011;5293;51.464;-2.566;2023-02-18T08:35:40;6.77;;;2.50;;
10491;SDS011;5293;51.464;-2.566;2023-02-18T08:38:06;9.93;;;2.20;;
10491;SDS011;5293;51.464;-2.566;2023-02-18T08:40:32;10.27;;;2.20;;
10491;SDS011;5293;51.464;-2.566;2023-02-18T08:42:58;11.27;;;1.90;;
10491;SDS011;5293;51.464;-2.566;2023-02-18T08:45:23;5.47;;;1.73;;
10491;SDS011;5293;51.464;-2.566;2023-02-18T08:47:49;7.43;;;1.60;;
10491;SDS011;5293;51.464;-2.566;2023-02-18T08:50:15;8.60;;;2.30;;
10491;SDS011;5293;51.464;-2.566;2023-02-18T08:52:41;9.83;;;3.07;;
10491;SDS011;5293;51.464;-2.566;2023-02-18T08:55:07;6.03;;;1.80;;
10491;SDS011;5293;51.464;-2.566;2023-02-18T08:57:33;6.93;;;2.40;;
10491;SDS011;5293;51.464;-2.566;2023-02-18T08:59:58;10.30;;;2.20;;
10491;SDS011;5293;51.464;-2.566;2023-02-18T09:02:24;6.73;;;2.37;;
10491;SDS011;5293;51.464;-2.566;2023-02-18T09:04:50;10.53;;;1.80;;
10491;SDS011;5293;51.464;-2.566;2023-02-18T09:07:15;8.50;;;2.30;;
10491;SDS011;5293;51.464;-2.566;2023-02-18T09:09:42;9.57;;;2.40;;
10491;SDS011;5293;51.464;-2.566;2023-02-18T09:12:07;6.93;;;1.97;;
10491;SDS011;5293;51.464;-2.566;2023-02-18T09:14:33;9.20;;;2.33;;
10491;SDS011;5293;51.464;-2.566;2023-02-18T09:16:59;8.50;;;2.27;;
10491;SDS011;5293;51.464;-2.566;2023-02-18T09:19:25;7.27;;;2.23;;
10491;SDS011;5293;51.464;-2.566;2023-02-18T09:21:51;9.03;;;2.20;;
10491;SDS011;5293;51.464;-2.566;2023-02-18T09:24:17;9.17;;;2.60;;
10491;SDS011;5293;51.464;-2.566;2023-02-18T09:26:46;4.17;;;1.70;;
10491;SDS011;5293;51.464;-2.566;2023-02-18T09:29:12;6.60;;;1.77;;
10491;SDS011;5293;51.464;-2.566;2023-02-18T09:31:38;7.20;;;1.97;;
10491;SDS011;5293;51.464;-2.566;2023-02-18T09:34:03;10.10;;;2.20;;
10491;SDS011;5293;51.464;-2.566;2023-02-18T09:36:30;10.00;;;2.10;;
10491;SDS011;5293;51.464;-2.566;2023-02-18T09:38:56;10.43;;;2.60;;
10491;SDS011;5293;51.464;-2.566;2023-02-18T09:44:31;18.30;;;2.73;;
10491;SDS011;5293;51.464;-2.566;2023-02-18T09:47:21;11.43;;;2.43;;
10491;SDS011;5293;51.464;-2.566;2023-02-18T09:50:03;9.83;;;2.60;;
10491;SDS011;5293;51.464;-2.566;2023-02-18T09:52:34;10.70;;;2.43;;
10491;SDS011;5293;51.464;-2.566;2023-02-18T09:55:48;12.47;;;2.70;;
10491;SDS011;5293;51.464;-2.566;2023-02-18T09:57:52;13.40;;;2.93;;
10491;SDS011;5293;51.464;-2.566;2023-02-18T10:00:26;14.30;;;2.60;;
10491;SDS011;5293;51.464;-2.566;2023-02-18T10:02:54;9.00;;;3.07;;
10491;SDS011;5293;51.464;-2.566;2023-02-18T10:05:22;17.03;;;3.00;;
10491;SDS011;5293;51.464;-2.566;2023-02-18T10:07:50;8.80;;;3.03;;
10491;SDS011;5293;51.464;-2.566;2023-02-18T10:10:20;17.57;;;3.30;;
10491;SDS011;5293;51.464;-2.566;2023-02-18T10:12:49;12.80;;;3.10;;
10491;SDS011;5293;51.464;-2.566;2023-02-18T10:15:19;10.43;;;2.60;;
10491;SDS011;5293;51.464;-2.566;2023-02-18T10:17:47;15.13;;;2.80;;
10491;SDS011;5293;51.464;-2.566;2023-02-18T10:20:19;15.52;;;3.22;;
10491;SDS011;5293;51.464;-2.566;2023-02-18T10:22:49;17.87;;;3.57;;
10491;SDS011;5293;51.464;-2.566;2023-02-18T10:25:17;13.60;;;3.10;;
10491;SDS011;5293;51.464;-2.566;2023-02-18T10:27:46;14.10;;;2.70;;
10491;SDS011;5293;51.464;-2.566;2023-02-18T10:30:32;12.37;;;3.00;;
10491;SDS011;5293;51.464;-2.566;2023-02-18T10:33:21;15.57;;;3.57;;
10491;SDS011;5293;51.464;-2.566;2023-02-18T10:52:29;12.33;;;2.60;;
10491;SDS011;5293;51.464;-2.566;2023-02-18T10:55:02;12.27;;;3.17;;
10491;SDS011;5293;51.464;-2.566;2023-02-18T10:57:33;15.87;;;3.60;;
10491;SDS011;5293;51.464;-2.566;2023-02-18T11:00:22;12.33;;;2.80;;
10491;SDS011;5293;51.464;-2.566;2023-02-18T11:03:01;12.10;;;3.47;;
10491;SDS011;5293;51.464;-2.566;2023-02-18T11:05:56;16.70;;;3.73;;
10491;SDS011;5293;51.464;-2.566;2023-02-18T11:08:24;11.33;;;2.93;;
10491;SDS011;5293;51.464;-2.566;2023-02-18T11:10:52;16.30;;;3.50;;
10491;SDS011;5293;51.464;-2.566;2023-02-18T11:13:24;12.27;;;3.33;;
10491;SDS011;5293;51.464;-2.566;2023-02-18T11:16:02;14.23;;;3.60;;
10491;SDS011;5293;51.464;-2.566;2023-02-18T11:23:47;14.40;;;3.53;;
10491;SDS011;5293;51.464;-2.566;2023-02-18T11:26:20;17.53;;;3.50;;
10491;SDS011;5293;51.464;-2.566;2023-02-18T11:29:05;9.17;;;3.23;;
10491;SDS011;5293;51.464;-2.566;2023-02-18T11:31:45;8.10;;;2.90;;
10491;SDS011;5293;51.464;-2.566;2023-02-18T11:34:23;11.87;;;2.60;;
10491;SDS011;5293;51.464;-2.566;2023-02-18T11:36:52;16.40;;;3.77;;
10491;SDS011;5293;51.464;-2.566;2023-02-18T11:39:25;18.53;;;3.23;;
10491;SDS011;5293;51.464;-2.566;2023-02-18T11:49:28;11.57;;;3.17;;
10491;SDS011;5293;51.464;-2.566;2023-02-18T11:52:02;11.30;;;3.40;;
10491;SDS011;5293;51.464;-2.566;2023-02-18T11:58:02;8.13;;;2.70;;
10491;SDS011;5293;51.464;-2.566;2023-02-18T12:00:46;11.07;;;2.50;;
10491;SDS011;5293;51.464;-2.566;2023-02-18T12:06:00;7.43;;;2.60;;
10491;SDS011;5293;51.464;-2.566;2023-02-18T12:08:31;7.17;;;2.13;;
10491;SDS011;5293;51.464;-2.566;2023-02-18T12:11:07;8.57;;;2.23;;
10491;SDS011;5293;51.464;-2.566;2023-02-18T12:13:38;12.03;;;2.90;;
10491;SDS011;5293;51.464;-2.566;2023-02-18T12:21:52;11.37;;;2.63;;
10491;SDS011;5293;51.464;-2.566;2023-02-18T12:27:18;9.57;;;2.60;;
10491;SDS011;5293;51.464;-2.566;2023-02-18T12:32:44;7.77;;;3.10;;
10491;SDS011;5293;51.464;-2.566;2023-02-18T12:41:16;11.50;;;3.20;;
10491;SDS011;5293;51.464;-2.566;2023-02-18T12:43:55;9.07;;;2.77;;
10491;SDS011;5293;51.464;-2.566;2023-02-18T12:46:51;18.73;;;3.50;;
10491;SDS011;5293;51.464;-2.566;2023-02-18T13:00:02;11.63;;;2.93;;
10491;SDS011;5293;51.464;-2.566;2023-02-18T13:05:56;7.13;;;2.17;;
10491;SDS011;5293;51.464;-2.566;2023-02-18T13:09:02;7.63;;;2.53;;
10491;SDS011;5293;51.464;-2.566;2023-02-18T13:17:21;11.00;;;3.00;;
10491;SDS011;5293;51.464;-2.566;2023-02-18T13:22:20;10.43;;;3.37;;
10491;SDS011;5293;51.464;-2.566;2023-02-18T13:24:48;12.23;;;3.03;;
10491;SDS011;5293;51.464;-2.566;2023-02-18T13:30:15;9.20;;;2.47;;
10491;SDS011;5293;51.464;-2.566;2023-02-18T13:32:53;8.03;;;2.03;;
10491;SDS011;5293;51.464;-2.566;2023-02-18T13:35:42;5.30;;;1.83;;
10491;SDS011;5293;51.464;-2.566;2023-02-18T13:41:04;7.17;;;2.10;;
10491;SDS011;5293;51.464;-2.566;2023-02-18T13:43:31;6.63;;;1.83;;
10491;SDS011;5293;51.464;-2.566;2023-02-18T13:46:14;7.40;;;2.07;;
10491;SDS011;5293;51.464;-2.566;2023-02-18T13:51:14;6.47;;;2.00;;
10491;SDS011;5293;51.464;-2.566;2023-02-18T13:53:50;4.47;;;1.50;;
10491;SDS011;5293;51.464;-2.566;2023-02-18T13:56:22;5.93;;;1.90;;
10491;SDS011;5293;51.464;-2.566;2023-02-18T13:58:54;5.63;;;1.83;;
10491;SDS011;5293;51.464;-2.566;2023-02-18T14:01:35;7.87;;;1.80;;
10491;SDS011;5293;51.464;-2.566;2023-02-18T14:04:31;5.40;;;2.23;;
10491;SDS011;5293;51.464;-2.566;2023-02-18T14:09:49;6.77;;;1.77;;
10491;SDS011;5293;51.464;-2.566;2023-02-18T14:15:10;6.20;;;2.43;;
10491;SDS011;5293;51.464;-2.566;2023-02-18T14:18:08;10.07;;;2.50;;
10491;SDS011;5293;51.464;-2.566;2023-02-18T14:28:51;10.20;;;2.10;;
10491;SDS011;5293;51.464;-2.566;2023-02-18T14:31:43;8.17;;;2.63;;
10491;SDS011;5293;51.464;-2.566;2023-02-18T14:37:05;16.57;;;2.80;;
10491;SDS011;5293;51.464;-2.566;2023-02-18T14:43:25;13.23;;;2.90;;
10491;SDS011;5293;51.464;-2.566;2023-02-18T14:50:40;16.20;;;3.20;;
10491;SDS011;5293;51.464;-2.566;2023-02-18T14:53:13;14.60;;;2.77;;
10491;SDS011;5293;51.464;-2.566;2023-02-18T14:55:43;10.57;;;2.70;;
10491;SDS011;5293;51.464;-2.566;2023-02-18T15:01:06;8.90;;;2.30;;
10491;SDS011;5293;51.464;-2.566;2023-02-18T15:03:39;7.43;;;2.40;;
10491;SDS011;5293;51.464;-2.566;2023-02-18T15:06:20;7.27;;;2.27;;
10491;SDS011;5293;51.464;-2.566;2023-02-18T15:08:55;4.87;;;1.90;;
10491;SDS011;5293;51.464;-2.566;2023-02-18T15:11:21;9.13;;;2.83;;
10491;SDS011;5293;51.464;-2.566;2023-02-18T15:13:52;7.90;;;2.00;;
10491;SDS011;5293;51.464;-2.566;2023-02-18T15:16:19;8.60;;;2.07;;
10491;SDS011;5293;51.464;-2.566;2023-02-18T15:18:58;5.13;;;1.70;;
10491;SDS011;5293;51.464;-2.566;2023-02-18T15:21:31;7.30;;;1.90;;
10491;SDS011;5293;51.464;-2.566;2023-02-18T15:24:04;10.27;;;2.00;;
10491;SDS011;5293;51.464;-2.566;2023-02-18T15:26:30;8.53;;;2.27;;
10491;SDS011;5293;51.464;-2.566;2023-02-18T15:29:00;15.67;;;2.70;;
10491;SDS011;5293;51.464;-2.566;2023-02-18T15:31:29;10.60;;;3.13;;
10491;SDS011;5293;51.464;-2.566;2023-02-18T15:33:59;11.43;;;2.43;;
10491;SDS011;5293;51.464;-2.566;2023-02-18T15:36:25;8.93;;;2.47;;
10491;SDS011;5293;51.464;-2.566;2023-02-18T15:38:51;8.87;;;2.43;;
10491;SDS011;5293;51.464;-2.566;2023-02-18T15:41:18;13.47;;;3.40;;
10491;SDS011;5293;51.464;-2.566;2023-02-18T15:43:56;10.17;;;2.70;;
10491;SDS011;5293;51.464;-2.566;2023-02-18T15:46:29;9.57;;;2.53;;
10491;SDS011;5293;51.464;-2.566;2023-02-18T15:48:56;8.67;;;2.03;;
10491;SDS011;5293;51.464;-2.566;2023-02-18T15:51:27;11.47;;;2.60;;
10491;SDS011;5293;51.464;-2.566;2023-02-18T15:54:00;11.33;;;2.90;;
10491;SDS011;5293;51.464;-2.566;2023-02-18T15:56:41;12.87;;;3.30;;
10491;SDS011;5293;51.464;-2.566;2023-02-18T15:59:12;17.47;;;2.60;;
10491;SDS011;5293;51.464;-2.566;2023-02-18T16:01:50;17.93;;;3.07;;
10491;SDS011;5293;51.464;-2.566;2023-02-18T16:04:37;14.80;;;3.33;;
10491;SDS011;5293;51.464;-2.566;2023-02-18T16:07:20;18.90;;;3.80;;
10491;SDS011;5293;51.464;-2.566;2023-02-18T16:13:00;16.13;;;3.17;;
10491;SDS011;5293;51.464;-2.566;2023-02-18T16:15:28;14.90;;;3.03;;
10491;SDS011;5293;51.464;-2.566;2023-02-18T16:17:55;16.40;;;3.10;;
10491;SDS011;5293;51.464;-2.566;2023-02-18T16:20:36;20.00;;;3.33;;
10491;SDS011;5293;51.464;-2.566;2023-02-18T16:23:07;14.33;;;3.17;;
10491;SDS011;5293;51.464;-2.566;2023-02-18T16:25:42;18.23;;;4.00;;
10491;SDS011;5293;51.464;-2.566;2023-02-18T16:28:16;15.43;;;3.77;;
10491;SDS011;5293;51.464;-2.566;2023-02-18T16:30:46;12.13;;;2.50;;
10491;SDS011;5293;51.464;-2.566;2023-02-18T16:33:12;20.00;;;3.50;;
10491;SDS011;5293;51.464;-2.566;2023-02-18T16:35:38;18.20;;;4.23;;
10491;SDS011;5293;51.464;-2.566;2023-02-18T16:38:05;14.40;;;2.43;;
10491;SDS011;5293;51.464;-2.566;2023-02-18T16:40:32;13.00;;;3.03;;
10491;SDS011;5293;51.464;-2.566;2023-02-18T16:43:10;14.40;;;3.30;;
10491;SDS011;5293;51.464;-2.566;2023-02-18T16:45:41;17.30;;;2.90;;
10491;SDS011;5293;51.464;-2.566;2023-02-18T16:51:04;14.40;;;3.07;;
10491;SDS011;5293;51.464;-2.566;2023-02-18T16:53:34;12.17;;;3.00;;
10491;SDS011;5293;51.464;-2.566;2023-02-18T16:56:00;19.93;;;3.13;;
10491;SDS011;5293;51.464;-2.566;2023-02-18T16:58:27;16.40;;;3.63;;
10491;SDS011;5293;51.464;-2.566;2023-02-18T17:00:52;24.13;;;4.30;;
10491;SDS011;5293;51.464;-2.566;2023-02-18T17:03:19;16.53;;;3.90;;
10491;SDS011;5293;51.464;-2.566;2023-02-18T17:05:45;19.17;;;4.47;;
10491;SDS011;5293;51.464;-2.566;2023-02-18T17:08:16;18.37;;;3.37;;
10491;SDS011;5293;51.464;-2.566;2023-02-18T17:10:45;16.37;;;4.10;;
10491;SDS011;5293;51.464;-2.566;2023-02-18T17:13:13;15.17;;;3.53;;
10491;SDS011;5293;51.464;-2.566;2023-02-18T17:15:50;18.70;;;3.67;;
10491;SDS011;5293;51.464;-2.566;2023-02-18T17:18:17;21.40;;;4.33;;
10491;SDS011;5293;51.464;-2.566;2023-02-18T17:20:43;23.93;;;3.80;;
10491;SDS011;5293;51.464;-2.566;2023-02-18T17:23:16;21.33;;;4.47;;
10491;SDS011;5293;51.464;-2.566;2023-02-18T17:25:45;24.83;;;4.60;;
10491;SDS011;5293;51.464;-2.566;2023-02-18T17:28:12;27.73;;;4.33;;
10491;SDS011;5293;51.464;-2.566;2023-02-18T17:30:42;28.90;;;4.40;;
10491;SDS011;5293;51.464;-2.566;2023-02-18T17:33:15;20.70;;;4.03;;
10491;SDS011;5293;51.464;-2.566;2023-02-18T17:35:42;22.03;;;5.23;;
10491;SDS011;5293;51.464;-2.566;2023-02-18T17:38:10;25.07;;;4.77;;
10491;SDS011;5293;51.464;-2.566;2023-02-18T17:40:40;22.13;;;4.17;;
10491;SDS011;5293;51.464;-2.566;2023-02-18T17:43:08;25.43;;;5.77;;
10491;SDS011;5293;51.464;-2.566;2023-02-18T17:45:39;19.93;;;4.53;;
10491;SDS011;5293;51.464;-2.566;2023-02-18T17:48:12;21.50;;;5.30;;
10491;SDS011;5293;51.464;-2.566;2023-02-18T17:50:38;23.87;;;5.10;;